sensor_id;sensor_type;location;lat;lon;timestamp;P1;durP1;ratioP1;P2;durP2;ratioP2
33501;SDS011;22396;51.070;4.974;2022-12-22T00:02:02;6.85;;;4.38;;
33501;SDS011;22396;51.070;4.974;2022-12-22T00:04:47;6.47;;;3.95;;
33501;SDS011;22396;51.070;4.974;2022-12-22T00:07:31;8.02;;;4.05;;
33501;SDS011;22396;51.070;4.974;2022-12-22T00:10:15;7.03;;;4.40;;
33501;SDS011;22396;51.070;4.974;2022-12-22T00:12:59;5.88;;;3.95;;
33501;SDS011;22396;51.070;4.974;2022-12-22T00:15:43;6.35;;;4.03;;
33501;SDS011;22396;51.070;4.974;2022-12-22T00:18:26;9.95;;;4.10;;
33501;SDS011;22396;51.070;4.974;2022-12-22T00:21:11;6.13;;;3.97;;
33501;SDS011;22396;51.070;4.974;2022-12-22T00:23:55;7.40;;;4.07;;
33501;SDS011;22396;51.070;4.974;2022-12-22T00:26:39;7.93;;;4.35;;
33501;SDS011;22396;51.070;4.974;2022-12-22T00:29:23;6.40;;;3.88;;
33501;SDS011;22396;51.070;4.974;2022-12-22T00:32:08;6.70;;;3.88;;
33501;SDS011;22396;51.070;4.974;2022-12-22T00:34:54;7.70;;;4.20;;
33501;SDS011;22396;51.070;4.974;2022-12-22T00:37:38;8.10;;;4.18;;
33501;SDS011;22396;51.070;4.974;2022-12-22T00:40:26;6.63;;;4.13;;
33501;SDS011;22396;51.070;4.974;2022-12-22T00:43:10;6.32;;;4.22;;
33501;SDS011;22396;51.070;4.974;2022-12-22T00:45:54;6.10;;;3.80;;
33501;SDS011;22396;51.070;4.974;2022-12-22T00:48:38;10.65;;;4.20;;
33501;SDS011;22396;51.070;4.974;2022-12-22T00:51:23;6.72;;;4.15;;
33501;SDS011;22396;51.070;4.974;2022-12-22T00:54:07;6.28;;;4.05;;
33501;SDS011;22396;51.070;4.974;2022-12-22T00:56:51;5.63;;;3.60;;
33501;SDS011;22396;51.070;4.974;2022-12-22T00:59:35;11.55;;;3.88;;
33501;SDS011;22396;51.070;4.974;2022-12-22T01:02:19;4.72;;;3.35;;
33501;SDS011;22396;51.070;4.974;2022-12-22T01:05:03;6.25;;;3.60;;
33501;SDS011;22396;51.070;4.974;2022-12-22T01:07:47;5.72;;;3.97;;
33501;SDS011;22396;51.070;4.974;2022-12-22T01:10:31;5.57;;;3.38;;
33501;SDS011;22396;51.070;4.974;2022-12-22T01:13:15;7.38;;;4.10;;
33501;SDS011;22396;51.070;4.974;2022-12-22T01:15:59;5.18;;;3.30;;
33501;SDS011;22396;51.070;4.974;2022-12-22T01:18:43;5.90;;;3.60;;
33501;SDS011;22396;51.070;4.974;2022-12-22T01:21:27;6.13;;;4.22;;
33501;SDS011;22396;51.070;4.974;2022-12-22T01:24:12;5.57;;;3.95;;
33501;SDS011;22396;51.070;4.974;2022-12-22T01:26:55;6.80;;;3.97;;
33501;SDS011;22396;51.070;4.974;2022-12-22T01:29:39;6.50;;;3.88;;
33501;SDS011;22396;51.070;4.974;2022-12-22T01:32:23;6.90;;;4.18;;
33501;SDS011;22396;51.070;4.974;2022-12-22T01:35:09;6.72;;;4.40;;
33501;SDS011;22396;51.070;4.974;2022-12-22T01:37:59;6.93;;;4.15;;
33501;SDS011;22396;51.070;4.974;2022-12-22T01:40:43;6.50;;;4.05;;
33501;SDS011;22396;51.070;4.974;2022-12-22T01:43:27;6.95;;;3.92;;
33501;SDS011;22396;51.070;4.974;2022-12-22T01:46:45;7.07;;;3.78;;
33501;SDS011;22396;51.070;4.974;2022-12-22T01:49:22;5.45;;;3.22;;
33501;SDS011;22396;51.070;4.974;2022-12-22T01:52:07;8.98;;;4.20;;
33501;SDS011;22396;51.070;4.974;2022-12-22T01:54:53;4.75;;;3.20;;
33501;SDS011;22396;51.070;4.974;2022-12-22T01:57:39;5.22;;;3.35;;
33501;SDS011;22396;51.070;4.974;2022-12-22T02:00:23;6.72;;;3.28;;
33501;SDS011;22396;51.070;4.974;2022-12-22T02:03:14;4.95;;;3.20;;
33501;SDS011;22396;51.070;4.974;2022-12-22T02:06:19;8.27;;;3.50;;
33501;SDS011;22396;51.070;4.974;2022-12-22T02:12:07;4.13;;;2.78;;
33501;SDS011;22396;51.070;4.974;2022-12-22T02:15:40;6.28;;;2.97;;
33501;SDS011;22396;51.070;4.974;2022-12-22T02:20:54;3.83;;;2.72;;
33501;SDS011;22396;51.070;4.974;2022-12-22T02:23:47;4.53;;;2.92;;
33501;SDS011;22396;51.070;4.974;2022-12-22T02:26:35;6.35;;;3.28;;
33501;SDS011;22396;51.070;4.974;2022-12-22T02:29:35;5.43;;;3.40;;
33501;SDS011;22396;51.070;4.974;2022-12-22T02:32:21;7.25;;;3.38;;
33501;SDS011;22396;51.070;4.974;2022-12-22T02:35:09;4.10;;;2.90;;
33501;SDS011;22396;51.070;4.974;2022-12-22T02:40:48;5.13;;;3.00;;
33501;SDS011;22396;51.070;4.974;2022-12-22T02:46:25;4.40;;;2.92;;
33501;SDS011;22396;51.070;4.974;2022-12-22T02:49:15;4.72;;;2.47;;
33501;SDS011;22396;51.070;4.974;2022-12-22T02:52:19;5.30;;;2.70;;
33501;SDS011;22396;51.070;4.974;2022-12-22T02:55:04;4.43;;;3.00;;
33501;SDS011;22396;51.070;4.974;2022-12-22T02:57:49;4.57;;;2.92;;
33501;SDS011;22396;51.070;4.974;2022-12-22T03:00:34;4.68;;;2.92;;
33501;SDS011;22396;51.070;4.974;2022-12-22T03:03:18;5.03;;;2.70;;
33501;SDS011;22396;51.070;4.974;2022-12-22T03:06:02;4.88;;;3.00;;
33501;SDS011;22396;51.070;4.974;2022-12-22T03:08:45;4.90;;;3.10;;
33501;SDS011;22396;51.070;4.974;2022-12-22T03:11:29;5.03;;;3.17;;
33501;SDS011;22396;51.070;4.974;2022-12-22T03:14:13;4.75;;;3.20;;
33501;SDS011;22396;51.070;4.974;2022-12-22T03:16:57;7.20;;;3.00;;
33501;SDS011;22396;51.070;4.974;2022-12-22T03:19:41;4.20;;;2.67;;
33501;SDS011;22396;51.070;4.974;2022-12-22T03:22:25;4.57;;;3.05;;
33501;SDS011;22396;51.070;4.974;2022-12-22T03:25:09;3.60;;;2.40;;
33501;SDS011;22396;51.070;4.974;2022-12-22T03:27:53;4.57;;;2.97;;
33501;SDS011;22396;51.070;4.974;2022-12-22T03:30:18;6.20;;;3.72;;
33501;SDS011;22396;51.070;4.974;2022-12-22T03:32:43;5.13;;;2.85;;
33501;SDS011;22396;51.070;4.974;2022-12-22T03:35:09;7.18;;;2.95;;
33501;SDS011;22396;51.070;4.974;2022-12-22T03:37:34;5.35;;;2.97;;
33501;SDS011;22396;51.070;4.974;2022-12-22T03:39:59;6.15;;;3.40;;
33501;SDS011;22396;51.070;4.974;2022-12-22T03:42:24;4.75;;;3.05;;
33501;SDS011;22396;51.070;4.974;2022-12-22T03:45:08;4.18;;;2.88;;
33501;SDS011;22396;51.070;4.974;2022-12-22T03:47:52;10.00;;;2.47;;
33501;SDS011;22396;51.070;4.974;2022-12-22T03:50:18;4.72;;;3.42;;
33501;SDS011;22396;51.070;4.974;2022-12-22T03:52:43;4.38;;;2.50;;
33501;SDS011;22396;51.070;4.974;2022-12-22T03:55:08;5.63;;;3.30;;
33501;SDS011;22396;51.070;4.974;2022-12-22T03:57:33;6.38;;;3.65;;
33501;SDS011;22396;51.070;4.974;2022-12-22T03:59:58;4.32;;;2.97;;
33501;SDS011;22396;51.070;4.974;2022-12-22T04:02:24;6.75;;;3.67;;
33501;SDS011;22396;51.070;4.974;2022-12-22T04:04:49;5.97;;;3.40;;
33501;SDS011;22396;51.070;4.974;2022-12-22T04:07:14;4.75;;;3.10;;
33501;SDS011;22396;51.070;4.974;2022-12-22T04:09:39;4.80;;;3.13;;
33501;SDS011;22396;51.070;4.974;2022-12-22T04:12:24;6.63;;;3.67;;
33501;SDS011;22396;51.070;4.974;2022-12-22T04:15:20;4.70;;;3.08;;
33501;SDS011;22396;51.070;4.974;2022-12-22T04:17:45;6.22;;;3.30;;
33501;SDS011;22396;51.070;4.974;2022-12-22T04:20:10;3.47;;;2.20;;
33501;SDS011;22396;51.070;4.974;2022-12-22T04:22:36;3.75;;;2.55;;
33501;SDS011;22396;51.070;4.974;2022-12-22T04:25:01;4.07;;;2.83;;
33501;SDS011;22396;51.070;4.974;2022-12-22T04:27:26;11.30;;;4.20;;
33501;SDS011;22396;51.070;4.974;2022-12-22T04:29:51;6.65;;;4.00;;
33501;SDS011;22396;51.070;4.974;2022-12-22T04:32:16;7.50;;;3.72;;
33501;SDS011;22396;51.070;4.974;2022-12-22T04:34:42;8.40;;;4.65;;
33501;SDS011;22396;51.070;4.974;2022-12-22T04:37:07;14.77;;;6.00;;
33501;SDS011;22396;51.070;4.974;2022-12-22T04:39:32;10.07;;;5.32;;
33501;SDS011;22396;51.070;4.974;2022-12-22T04:41:57;15.00;;;4.20;;
33501;SDS011;22396;51.070;4.974;2022-12-22T04:44:22;7.20;;;3.08;;
33501;SDS011;22396;51.070;4.974;2022-12-22T04:46:48;9.75;;;6.13;;
33501;SDS011;22396;51.070;4.974;2022-12-22T04:49:13;7.75;;;4.90;;
33501;SDS011;22396;51.070;4.974;2022-12-22T04:51:38;5.43;;;3.28;;
33501;SDS011;22396;51.070;4.974;2022-12-22T04:54:03;5.53;;;3.10;;
33501;SDS011;22396;51.070;4.974;2022-12-22T04:56:28;5.07;;;2.60;;
33501;SDS011;22396;51.070;4.974;2022-12-22T04:58:54;2.28;;;1.75;;
33501;SDS011;22396;51.070;4.974;2022-12-22T05:01:19;2.10;;;1.85;;
33501;SDS011;22396;51.070;4.974;2022-12-22T05:03:44;2.75;;;2.10;;
33501;SDS011;22396;51.070;4.974;2022-12-22T05:06:09;3.95;;;2.20;;
33501;SDS011;22396;51.070;4.974;2022-12-22T05:08:35;5.30;;;2.40;;
33501;SDS011;22396;51.070;4.974;2022-12-22T05:11:01;4.47;;;3.08;;
33501;SDS011;22396;51.070;4.974;2022-12-22T05:13:26;4.15;;;2.38;;
33501;SDS011;22396;51.070;4.974;2022-12-22T05:15:52;2.95;;;2.03;;
33501;SDS011;22396;51.070;4.974;2022-12-22T05:18:17;3.50;;;2.40;;
33501;SDS011;22396;51.070;4.974;2022-12-22T05:20:42;3.97;;;2.67;;
33501;SDS011;22396;51.070;4.974;2022-12-22T05:23:07;4.38;;;2.60;;
33501;SDS011;22396;51.070;4.974;2022-12-22T05:25:32;4.10;;;2.90;;
33501;SDS011;22396;51.070;4.974;2022-12-22T05:27:58;4.93;;;2.95;;
33501;SDS011;22396;51.070;4.974;2022-12-22T05:30:23;5.80;;;3.20;;
33501;SDS011;22396;51.070;4.974;2022-12-22T05:32:48;5.20;;;3.38;;
33501;SDS011;22396;51.070;4.974;2022-12-22T05:35:13;5.22;;;3.33;;
33501;SDS011;22396;51.070;4.974;2022-12-22T05:37:39;5.65;;;3.67;;
33501;SDS011;22396;51.070;4.974;2022-12-22T05:40:04;6.80;;;3.42;;
33501;SDS011;22396;51.070;4.974;2022-12-22T05:42:30;5.25;;;3.35;;
33501;SDS011;22396;51.070;4.974;2022-12-22T05:45:06;4.40;;;2.33;;
33501;SDS011;22396;51.070;4.974;2022-12-22T05:47:31;3.33;;;2.00;;
33501;SDS011;22396;51.070;4.974;2022-12-22T05:49:56;2.50;;;1.88;;
33501;SDS011;22396;51.070;4.974;2022-12-22T05:52:22;3.22;;;2.15;;
33501;SDS011;22396;51.070;4.974;2022-12-22T05:54:47;2.50;;;1.73;;
33501;SDS011;22396;51.070;4.974;2022-12-22T05:57:12;2.15;;;1.50;;
33501;SDS011;22396;51.070;4.974;2022-12-22T05:59:37;4.32;;;1.45;;
33501;SDS011;22396;51.070;4.974;2022-12-22T06:02:02;5.93;;;3.70;;
33501;SDS011;22396;51.070;4.974;2022-12-22T06:04:28;2.83;;;1.90;;
33501;SDS011;22396;51.070;4.974;2022-12-22T06:06:53;2.47;;;1.83;;
33501;SDS011;22396;51.070;4.974;2022-12-22T06:09:18;4.18;;;2.63;;
33501;SDS011;22396;51.070;4.974;2022-12-22T06:11:43;5.05;;;3.17;;
33501;SDS011;22396;51.070;4.974;2022-12-22T06:14:08;4.90;;;3.03;;
33501;SDS011;22396;51.070;4.974;2022-12-22T06:16:34;7.00;;;3.72;;
33501;SDS011;22396;51.070;4.974;2022-12-22T06:18:59;10.25;;;5.28;;
33501;SDS011;22396;51.070;4.974;2022-12-22T06:21:24;14.63;;;7.18;;
33501;SDS011;22396;51.070;4.974;2022-12-22T06:23:49;15.25;;;6.80;;
33501;SDS011;22396;51.070;4.974;2022-12-22T06:26:14;21.17;;;9.38;;
33501;SDS011;22396;51.070;4.974;2022-12-22T06:28:40;21.98;;;9.10;;
33501;SDS011;22396;51.070;4.974;2022-12-22T06:31:05;24.25;;;10.60;;
33501;SDS011;22396;51.070;4.974;2022-12-22T06:33:30;26.52;;;10.70;;
33501;SDS011;22396;51.070;4.974;2022-12-22T06:35:55;24.25;;;10.25;;
33501;SDS011;22396;51.070;4.974;2022-12-22T06:38:20;26.83;;;10.55;;
33501;SDS011;22396;51.070;4.974;2022-12-22T06:40:46;26.52;;;9.80;;
33501;SDS011;22396;51.070;4.974;2022-12-22T06:43:11;27.90;;;11.65;;
33501;SDS011;22396;51.070;4.974;2022-12-22T06:45:40;32.22;;;12.43;;
33501;SDS011;22396;51.070;4.974;2022-12-22T06:48:06;31.25;;;12.07;;
33501;SDS011;22396;51.070;4.974;2022-12-22T06:50:31;33.03;;;11.98;;
33501;SDS011;22396;51.070;4.974;2022-12-22T06:52:56;32.00;;;13.32;;
33501;SDS011;22396;51.070;4.974;2022-12-22T06:55:22;31.90;;;12.50;;
33501;SDS011;22396;51.070;4.974;2022-12-22T06:57:47;31.10;;;12.85;;
33501;SDS011;22396;51.070;4.974;2022-12-22T07:00:12;28.42;;;12.40;;
33501;SDS011;22396;51.070;4.974;2022-12-22T07:02:37;29.88;;;13.15;;
33501;SDS011;22396;51.070;4.974;2022-12-22T07:05:03;30.95;;;13.77;;
33501;SDS011;22396;51.070;4.974;2022-12-22T07:07:28;31.40;;;13.38;;
33501;SDS011;22396;51.070;4.974;2022-12-22T07:09:53;27.95;;;12.55;;
33501;SDS011;22396;51.070;4.974;2022-12-22T07:12:19;29.77;;;12.10;;
33501;SDS011;22396;51.070;4.974;2022-12-22T07:14:45;28.17;;;12.02;;
33501;SDS011;22396;51.070;4.974;2022-12-22T07:17:10;28.88;;;12.40;;
33501;SDS011;22396;51.070;4.974;2022-12-22T07:19:35;33.00;;;14.02;;
33501;SDS011;22396;51.070;4.974;2022-12-22T07:22:00;29.05;;;12.57;;
33501;SDS011;22396;51.070;4.974;2022-12-22T07:24:25;33.05;;;11.43;;
33501;SDS011;22396;51.070;4.974;2022-12-22T07:26:53;31.10;;;13.13;;
33501;SDS011;22396;51.070;4.974;2022-12-22T07:29:18;31.33;;;12.63;;
33501;SDS011;22396;51.070;4.974;2022-12-22T07:31:43;29.23;;;12.75;;
33501;SDS011;22396;51.070;4.974;2022-12-22T07:34:08;30.02;;;12.82;;
33501;SDS011;22396;51.070;4.974;2022-12-22T07:36:34;32.50;;;11.73;;
33501;SDS011;22396;51.070;4.974;2022-12-22T07:38:59;30.10;;;13.25;;
33501;SDS011;22396;51.070;4.974;2022-12-22T07:41:24;32.45;;;13.38;;
33501;SDS011;22396;51.070;4.974;2022-12-22T07:44:08;36.60;;;13.18;;
33501;SDS011;22396;51.070;4.974;2022-12-22T07:46:34;30.98;;;12.15;;
33501;SDS011;22396;51.070;4.974;2022-12-22T07:48:59;31.35;;;13.35;;
33501;SDS011;22396;51.070;4.974;2022-12-22T07:51:43;31.45;;;12.82;;
33501;SDS011;22396;51.070;4.974;2022-12-22T07:54:10;21.88;;;9.77;;
33501;SDS011;22396;51.070;4.974;2022-12-22T07:56:35;27.52;;;11.43;;
33501;SDS011;22396;51.070;4.974;2022-12-22T07:59:01;33.35;;;12.60;;
33501;SDS011;22396;51.070;4.974;2022-12-22T08:01:26;29.13;;;12.02;;
33501;SDS011;22396;51.070;4.974;2022-12-22T08:03:51;26.33;;;11.00;;
33501;SDS011;22396;51.070;4.974;2022-12-22T08:06:17;34.67;;;13.10;;
33501;SDS011;22396;51.070;4.974;2022-12-22T08:08:43;33.65;;;14.05;;
33501;SDS011;22396;51.070;4.974;2022-12-22T08:11:08;36.85;;;13.65;;
33501;SDS011;22396;51.070;4.974;2022-12-22T08:13:33;34.38;;;14.10;;
33501;SDS011;22396;51.070;4.974;2022-12-22T08:16:02;34.10;;;13.93;;
33501;SDS011;22396;51.070;4.974;2022-12-22T08:18:28;36.83;;;14.80;;
33501;SDS011;22396;51.070;4.974;2022-12-22T08:20:54;38.97;;;15.20;;
33501;SDS011;22396;51.070;4.974;2022-12-22T08:23:19;36.05;;;14.63;;
33501;SDS011;22396;51.070;4.974;2022-12-22T08:25:44;38.95;;;15.30;;
33501;SDS011;22396;51.070;4.974;2022-12-22T08:28:12;36.80;;;13.88;;
33501;SDS011;22396;51.070;4.974;2022-12-22T08:30:41;38.17;;;13.50;;
33501;SDS011;22396;51.070;4.974;2022-12-22T08:33:06;42.50;;;15.18;;
33501;SDS011;22396;51.070;4.974;2022-12-22T08:35:31;42.35;;;13.73;;
33501;SDS011;22396;51.070;4.974;2022-12-22T08:37:56;39.75;;;13.50;;
33501;SDS011;22396;51.070;4.974;2022-12-22T08:40:22;33.33;;;14.18;;
33501;SDS011;22396;51.070;4.974;2022-12-22T08:42:49;39.85;;;13.65;;
33501;SDS011;22396;51.070;4.974;2022-12-22T08:45:16;36.42;;;14.90;;
33501;SDS011;22396;51.070;4.974;2022-12-22T08:47:41;37.03;;;15.45;;
33501;SDS011;22396;51.070;4.974;2022-12-22T08:50:06;48.22;;;16.80;;
33501;SDS011;22396;51.070;4.974;2022-12-22T08:52:32;40.60;;;14.50;;
33501;SDS011;22396;51.070;4.974;2022-12-22T08:54:57;41.35;;;15.18;;
33501;SDS011;22396;51.070;4.974;2022-12-22T08:57:22;40.65;;;13.80;;
33501;SDS011;22396;51.070;4.974;2022-12-22T08:59:47;46.10;;;15.32;;
33501;SDS011;22396;51.070;4.974;2022-12-22T09:02:13;41.35;;;14.60;;
33501;SDS011;22396;51.070;4.974;2022-12-22T09:04:38;41.80;;;15.27;;
33501;SDS011;22396;51.070;4.974;2022-12-22T09:07:03;42.55;;;15.20;;
33501;SDS011;22396;51.070;4.974;2022-12-22T09:09:32;43.05;;;17.35;;
33501;SDS011;22396;51.070;4.974;2022-12-22T09:11:58;47.83;;;17.17;;
33501;SDS011;22396;51.070;4.974;2022-12-22T09:14:24;53.45;;;18.65;;
33501;SDS011;22396;51.070;4.974;2022-12-22T09:16:49;52.60;;;17.63;;
33501;SDS011;22396;51.070;4.974;2022-12-22T09:19:14;54.25;;;20.60;;
33501;SDS011;22396;51.070;4.974;2022-12-22T09:21:39;58.72;;;17.88;;
33501;SDS011;22396;51.070;4.974;2022-12-22T09:24:05;50.97;;;18.67;;
33501;SDS011;22396;51.070;4.974;2022-12-22T09:26:31;39.17;;;14.85;;
33501;SDS011;22396;51.070;4.974;2022-12-22T09:28:56;49.13;;;17.02;;
33501;SDS011;22396;51.070;4.974;2022-12-22T09:31:22;43.28;;;13.35;;
33501;SDS011;22396;51.070;4.974;2022-12-22T09:33:48;38.20;;;14.13;;
33501;SDS011;22396;51.070;4.974;2022-12-22T09:36:15;37.58;;;13.80;;
33501;SDS011;22396;51.070;4.974;2022-12-22T09:38:40;39.40;;;15.23;;
33501;SDS011;22396;51.070;4.974;2022-12-22T09:41:07;40.53;;;14.88;;
33501;SDS011;22396;51.070;4.974;2022-12-22T09:43:32;40.72;;;14.48;;
33501;SDS011;22396;51.070;4.974;2022-12-22T09:45:57;44.67;;;17.30;;
33501;SDS011;22396;51.070;4.974;2022-12-22T09:48:22;38.63;;;14.52;;
33501;SDS011;22396;51.070;4.974;2022-12-22T09:50:52;38.30;;;15.70;;
33501;SDS011;22396;51.070;4.974;2022-12-22T09:53:18;36.80;;;13.55;;
33501;SDS011;22396;51.070;4.974;2022-12-22T09:55:45;36.70;;;13.70;;
33501;SDS011;22396;51.070;4.974;2022-12-22T09:58:30;37.85;;;14.65;;
33501;SDS011;22396;51.070;4.974;2022-12-22T10:00:59;42.35;;;15.25;;
33501;SDS011;22396;51.070;4.974;2022-12-22T10:03:30;38.92;;;15.35;;
33501;SDS011;22396;51.070;4.974;2022-12-22T10:08:26;38.60;;;14.27;;
33501;SDS011;22396;51.070;4.974;2022-12-22T10:10:53;33.92;;;13.18;;
33501;SDS011;22396;51.070;4.974;2022-12-22T10:13:18;38.97;;;13.90;;
33501;SDS011;22396;51.070;4.974;2022-12-22T10:15:44;41.33;;;17.27;;
33501;SDS011;22396;51.070;4.974;2022-12-22T10:18:11;42.40;;;16.85;;
33501;SDS011;22396;51.070;4.974;2022-12-22T10:20:36;40.47;;;15.25;;
33501;SDS011;22396;51.070;4.974;2022-12-22T10:23:04;38.60;;;14.68;;
33501;SDS011;22396;51.070;4.974;2022-12-22T10:25:59;42.08;;;15.30;;
33501;SDS011;22396;51.070;4.974;2022-12-22T10:28:26;35.00;;;14.13;;
33501;SDS011;22396;51.070;4.974;2022-12-22T10:33:37;35.83;;;13.38;;
33501;SDS011;22396;51.070;4.974;2022-12-22T10:36:03;33.22;;;13.52;;
33501;SDS011;22396;51.070;4.974;2022-12-22T10:40:58;34.08;;;14.25;;
33501;SDS011;22396;51.070;4.974;2022-12-22T10:43:26;33.03;;;13.10;;
33501;SDS011;22396;51.070;4.974;2022-12-22T10:45:52;31.58;;;14.38;;
33501;SDS011;22396;51.070;4.974;2022-12-22T10:48:24;28.40;;;11.93;;
33501;SDS011;22396;51.070;4.974;2022-12-22T10:50:49;28.15;;;12.27;;
33501;SDS011;22396;51.070;4.974;2022-12-22T10:53:14;34.78;;;11.55;;
33501;SDS011;22396;51.070;4.974;2022-12-22T10:55:40;31.33;;;13.10;;
33501;SDS011;22396;51.070;4.974;2022-12-22T10:58:15;31.98;;;11.73;;
33501;SDS011;22396;51.070;4.974;2022-12-22T11:00:41;29.38;;;11.73;;
33501;SDS011;22396;51.070;4.974;2022-12-22T11:03:08;27.77;;;11.38;;
33501;SDS011;22396;51.070;4.974;2022-12-22T11:05:35;31.83;;;11.25;;
33501;SDS011;22396;51.070;4.974;2022-12-22T11:08:06;32.20;;;11.95;;
33501;SDS011;22396;51.070;4.974;2022-12-22T11:10:46;32.58;;;10.90;;
33501;SDS011;22396;51.070;4.974;2022-12-22T11:13:22;28.17;;;11.43;;
33501;SDS011;22396;51.070;4.974;2022-12-22T11:28:28;21.95;;;10.15;;
33501;SDS011;22396;51.070;4.974;2022-12-22T11:33:53;23.48;;;11.98;;
33501;SDS011;22396;51.070;4.974;2022-12-22T11:36:27;24.63;;;11.77;;
33501;SDS011;22396;51.070;4.974;2022-12-22T11:38:57;23.75;;;11.43;;
33501;SDS011;22396;51.070;4.974;2022-12-22T11:41:29;26.80;;;12.07;;
33501;SDS011;22396;51.070;4.974;2022-12-22T11:44:05;22.05;;;11.27;;
33501;SDS011;22396;51.070;4.974;2022-12-22T11:46:51;18.73;;;12.27;;
33501;SDS011;22396;51.070;4.974;2022-12-22T11:52:14;13.45;;;8.27;;
33501;SDS011;22396;51.070;4.974;2022-12-22T12:07:53;16.58;;;8.32;;
33501;SDS011;22396;51.070;4.974;2022-12-22T12:10:25;15.05;;;8.27;;
33501;SDS011;22396;51.070;4.974;2022-12-22T12:13:00;22.13;;;8.63;;
33501;SDS011;22396;51.070;4.974;2022-12-22T12:23:34;16.38;;;8.82;;
33501;SDS011;22396;51.070;4.974;2022-12-22T12:26:09;16.65;;;9.48;;
33501;SDS011;22396;51.070;4.974;2022-12-22T12:31:11;15.87;;;7.40;;
33501;SDS011;22396;51.070;4.974;2022-12-22T12:33:47;11.35;;;6.30;;
33501;SDS011;22396;51.070;4.974;2022-12-22T12:36:16;12.70;;;7.25;;
33501;SDS011;22396;51.070;4.974;2022-12-22T12:38:50;15.27;;;7.80;;
33501;SDS011;22396;51.070;4.974;2022-12-22T12:41:29;17.50;;;8.43;;
33501;SDS011;22396;51.070;4.974;2022-12-22T12:43:56;13.80;;;7.45;;
33501;SDS011;22396;51.070;4.974;2022-12-22T12:51:49;12.18;;;6.13;;
33501;SDS011;22396;51.070;4.974;2022-12-22T13:10:20;9.73;;;5.65;;
33501;SDS011;22396;51.070;4.974;2022-12-22T13:12:52;8.25;;;4.53;;
33501;SDS011;22396;51.070;4.974;2022-12-22T13:17:49;9.23;;;4.25;;
33501;SDS011;22396;51.070;4.974;2022-12-22T13:20:16;5.87;;;3.33;;
33501;SDS011;22396;51.070;4.974;2022-12-22T13:22:42;12.82;;;3.47;;
33501;SDS011;22396;51.070;4.974;2022-12-22T13:25:12;7.32;;;2.92;;
33501;SDS011;22396;51.070;4.974;2022-12-22T13:27:38;4.38;;;2.15;;
33501;SDS011;22396;51.070;4.974;2022-12-22T13:30:03;6.60;;;2.67;;
33501;SDS011;22396;51.070;4.974;2022-12-22T13:32:31;6.72;;;2.60;;
33501;SDS011;22396;51.070;4.974;2022-12-22T13:37:28;3.90;;;1.90;;
33501;SDS011;22396;51.070;4.974;2022-12-22T13:40:04;3.65;;;2.25;;
33501;SDS011;22396;51.070;4.974;2022-12-22T13:42:29;3.83;;;1.80;;
33501;SDS011;22396;51.070;4.974;2022-12-22T13:44:54;4.80;;;1.80;;
33501;SDS011;22396;51.070;4.974;2022-12-22T13:47:20;11.60;;;4.03;;
33501;SDS011;22396;51.070;4.974;2022-12-22T13:49:45;7.53;;;2.33;;
33501;SDS011;22396;51.070;4.974;2022-12-22T13:52:11;8.52;;;2.33;;
33501;SDS011;22396;51.070;4.974;2022-12-22T13:54:37;3.25;;;1.90;;
33501;SDS011;22396;51.070;4.974;2022-12-22T13:57:04;4.20;;;1.80;;
33501;SDS011;22396;51.070;4.974;2022-12-22T13:59:43;4.25;;;2.10;;
33501;SDS011;22396;51.070;4.974;2022-12-22T14:04:35;3.90;;;1.70;;
33501;SDS011;22396;51.070;4.974;2022-12-22T14:07:14;4.13;;;1.50;;
33501;SDS011;22396;51.070;4.974;2022-12-22T14:09:43;6.60;;;1.60;;
33501;SDS011;22396;51.070;4.974;2022-12-22T14:12:11;3.67;;;1.52;;
33501;SDS011;22396;51.070;4.974;2022-12-22T14:14:39;7.10;;;1.95;;
33501;SDS011;22396;51.070;4.974;2022-12-22T14:17:12;4.07;;;1.70;;
33501;SDS011;22396;51.070;4.974;2022-12-22T14:19:41;3.83;;;2.03;;
33501;SDS011;22396;51.070;4.974;2022-12-22T14:22:10;2.15;;;1.70;;
33501;SDS011;22396;51.070;4.974;2022-12-22T14:24:42;3.78;;;1.88;;
33501;SDS011;22396;51.070;4.974;2022-12-22T14:27:19;4.55;;;2.35;;
33501;SDS011;22396;51.070;4.974;2022-12-22T14:29:47;5.00;;;2.00;;
33501;SDS011;22396;51.070;4.974;2022-12-22T14:32:31;3.38;;;2.20;;
33501;SDS011;22396;51.070;4.974;2022-12-22T14:34:57;4.88;;;2.60;;
33501;SDS011;22396;51.070;4.974;2022-12-22T14:37:22;5.53;;;2.58;;
33501;SDS011;22396;51.070;4.974;2022-12-22T14:39:53;5.97;;;2.50;;
33501;SDS011;22396;51.070;4.974;2022-12-22T14:42:18;7.68;;;2.50;;
33501;SDS011;22396;51.070;4.974;2022-12-22T14:44:44;5.43;;;2.22;;
33501;SDS011;22396;51.070;4.974;2022-12-22T14:50:13;6.88;;;2.20;;
33501;SDS011;22396;51.070;4.974;2022-12-22T14:52:44;7.47;;;2.90;;
33501;SDS011;22396;51.070;4.974;2022-12-22T14:55:30;4.57;;;2.78;;
33501;SDS011;22396;51.070;4.974;2022-12-22T14:58:10;4.07;;;2.30;;
33501;SDS011;22396;51.070;4.974;2022-12-22T15:00:37;4.55;;;2.72;;
33501;SDS011;22396;51.070;4.974;2022-12-22T15:05:47;4.25;;;2.67;;
33501;SDS011;22396;51.070;4.974;2022-12-22T15:10:56;5.72;;;2.88;;
33501;SDS011;22396;51.070;4.974;2022-12-22T15:13:23;8.27;;;3.90;;
33501;SDS011;22396;51.070;4.974;2022-12-22T15:15:49;10.60;;;3.80;;
33501;SDS011;22396;51.070;4.974;2022-12-22T15:18:14;9.75;;;3.13;;
33501;SDS011;22396;51.070;4.974;2022-12-22T15:20:40;6.18;;;3.05;;
33501;SDS011;22396;51.070;4.974;2022-12-22T15:23:09;5.30;;;2.63;;
33501;SDS011;22396;51.070;4.974;2022-12-22T15:25:35;10.40;;;3.55;;
33501;SDS011;22396;51.070;4.974;2022-12-22T15:28:00;10.48;;;4.15;;
33501;SDS011;22396;51.070;4.974;2022-12-22T15:30:25;8.07;;;3.40;;
33501;SDS011;22396;51.070;4.974;2022-12-22T15:32:51;7.75;;;3.53;;
33501;SDS011;22396;51.070;4.974;2022-12-22T15:35:17;5.90;;;3.10;;
33501;SDS011;22396;51.070;4.974;2022-12-22T15:37:43;7.75;;;3.28;;
33501;SDS011;22396;51.070;4.974;2022-12-22T15:40:15;6.55;;;3.85;;
33501;SDS011;22396;51.070;4.974;2022-12-22T15:42:41;12.05;;;3.72;;
33501;SDS011;22396;51.070;4.974;2022-12-22T15:45:06;10.38;;;3.85;;
33501;SDS011;22396;51.070;4.974;2022-12-22T15:47:32;7.38;;;3.80;;
33501;SDS011;22396;51.070;4.974;2022-12-22T15:49:57;9.40;;;4.40;;
33501;SDS011;22396;51.070;4.974;2022-12-22T15:52:23;16.88;;;4.47;;
33501;SDS011;22396;51.070;4.974;2022-12-22T15:54:48;12.48;;;4.47;;
33501;SDS011;22396;51.070;4.974;2022-12-22T15:57:13;15.63;;;4.55;;
33501;SDS011;22396;51.070;4.974;2022-12-22T15:59:38;15.88;;;4.32;;
33501;SDS011;22396;51.070;4.974;2022-12-22T16:02:08;15.63;;;4.22;;
33501;SDS011;22396;51.070;4.974;2022-12-22T16:04:34;15.75;;;4.32;;
33501;SDS011;22396;51.070;4.974;2022-12-22T16:06:59;17.58;;;4.93;;
33501;SDS011;22396;51.070;4.974;2022-12-22T16:09:25;16.23;;;4.35;;
33501;SDS011;22396;51.070;4.974;2022-12-22T16:11:51;15.20;;;3.42;;
33501;SDS011;22396;51.070;4.974;2022-12-22T16:14:16;18.60;;;3.63;;
33501;SDS011;22396;51.070;4.974;2022-12-22T16:16:42;26.52;;;4.07;;
33501;SDS011;22396;51.070;4.974;2022-12-22T16:19:14;20.65;;;4.18;;
33501;SDS011;22396;51.070;4.974;2022-12-22T16:21:40;21.00;;;3.25;;
33501;SDS011;22396;51.070;4.974;2022-12-22T16:24:07;30.75;;;4.47;;
33501;SDS011;22396;51.070;4.974;2022-12-22T16:26:35;31.80;;;5.43;;
33501;SDS011;22396;51.070;4.974;2022-12-22T16:29:00;22.10;;;4.10;;
33501;SDS011;22396;51.070;4.974;2022-12-22T16:31:26;22.35;;;4.38;;
33501;SDS011;22396;51.070;4.974;2022-12-22T16:33:51;27.23;;;4.30;;
33501;SDS011;22396;51.070;4.974;2022-12-22T16:36:16;25.27;;;4.43;;
33501;SDS011;22396;51.070;4.974;2022-12-22T16:38:42;27.27;;;3.95;;